sensor_id;sensor_type;location;lat;lon;timestamp;pressure;altitude;pressure_sealevel;temperature;humidity
3178;BME280;38141;42.666;23.344;2023-04-21T00:01:57;94265.91;;;11.15;100.00
3178;BME280;38141;42.666;23.344;2023-04-21T00:04:25;94256.59;;;11.20;100.00
3178;BME280;38141;42.666;23.344;2023-04-21T00:06:53;94272.78;;;11.27;100.00
3178;BME280;38141;42.666;23.344;2023-04-21T00:09:20;94166.53;;;10.46;100.00
3178;BME280;38141;42.666;23.344;2023-04-21T00:11:48;94145.44;;;10.20;100.00
3178;BME280;38141;42.666;23.344;2023-04-21T00:14:15;94249.00;;;10.97;100.00
3178;BME280;38141;42.666;23.344;2023-04-21T00:16:42;94258.53;;;11.19;100.00
3178;BME280;38141;42.666;23.344;2023-04-21T00:19:08;94215.38;;;10.91;100.00
3178;BME280;38141;42.666;23.344;2023-04-21T00:21:38;94212.22;;;10.99;100.00
3178;BME280;38141;42.666;23.344;2023-04-21T00:24:06;94191.53;;;10.68;100.00
3178;BME280;38141;42.666;23.344;2023-04-21T00:26:33;94257.50;;;10.95;100.00
3178;BME280;38141;42.666;23.344;2023-04-21T00:29:01;94247.41;;;11.03;100.00
3178;BME280;38141;42.666;23.344;2023-04-21T00:31:28;94228.94;;;10.87;100.00
3178;BME280;38141;42.666;23.344;2023-04-21T00:33:55;94237.06;;;10.84;100.00
3178;BME280;38141;42.666;23.344;2023-04-21T00:36:21;94216.66;;;10.68;100.00
3178;BME280;38141;42.666;23.344;2023-04-21T00:38:49;94287.63;;;11.01;100.00
3178;BME280;38141;42.666;23.344;2023-04-21T00:41:15;94186.28;;;10.43;100.00
3178;BME280;38141;42.666;23.344;2023-04-21T00:44:02;94215.94;;;10.61;100.00
3178;BME280;38141;42.666;23.344;2023-04-21T00:46:31;94266.78;;;10.94;100.00
3178;BME280;38141;42.666;23.344;2023-04-21T00:48:58;94224.03;;;10.64;100.00
3178;BME280;38141;42.666;23.344;2023-04-21T00:51:27;94262.94;;;10.88;100.00
3178;BME280;38141;42.666;23.344;2023-04-21T00:53:55;94254.47;;;10.83;100.00
3178;BME280;38141;42.666;23.344;2023-04-21T00:56:21;94259.06;;;10.93;100.00
3178;BME280;38141;42.666;23.344;2023-04-21T00:58:48;94241.34;;;10.78;100.00
3178;BME280;38141;42.666;23.344;2023-04-21T01:01:17;94200.88;;;10.56;100.00
3178;BME280;38141;42.666;23.344;2023-04-21T01:03:44;94235.97;;;10.74;98.68
3178;BME280;38141;42.666;23.344;2023-04-21T01:06:11;94125.38;;;10.07;97.96
3178;BME280;38141;42.666;23.344;2023-04-21T01:08:39;94240.53;;;10.88;98.43
3178;BME280;38141;42.666;23.344;2023-04-21T01:11:09;94251.31;;;10.95;97.49
3178;BME280;38141;42.666;23.344;2023-04-21T01:13:36;94248.19;;;11.00;97.06
3178;BME280;38141;42.666;23.344;2023-04-21T01:16:04;94171.53;;;10.55;97.30
3178;BME280;38141;42.666;23.344;2023-04-21T01:18:33;94253.59;;;11.00;96.31
3178;BME280;38141;42.666;23.344;2023-04-21T01:21:01;94235.84;;;10.99;95.51
3178;BME280;38141;42.666;23.344;2023-04-21T01:23:30;94160.03;;;10.33;95.52
3178;BME280;38141;42.666;23.344;2023-04-21T01:25:57;94250.56;;;10.91;96.87
3178;BME280;38141;42.666;23.344;2023-04-21T01:28:24;94255.63;;;10.82;97.92
3178;BME280;38141;42.666;23.344;2023-04-21T01:30:52;94186.28;;;10.40;97.48
3178;BME280;38141;42.666;23.344;2023-04-21T01:33:19;94193.25;;;10.37;98.81
3178;BME280;38141;42.666;23.344;2023-04-21T01:35:46;94258.00;;;10.76;99.11
3178;BME280;38141;42.666;23.344;2023-04-21T01:38:14;94257.63;;;10.70;99.72
3178;BME280;38141;42.666;23.344;2023-04-21T01:40:47;94183.28;;;10.20;100.00
3178;BME280;38141;42.666;23.344;2023-04-21T01:43:15;94241.38;;;10.74;100.00
3178;BME280;38141;42.666;23.344;2023-04-21T01:45:43;94223.66;;;10.59;100.00
3178;BME280;38141;42.666;23.344;2023-04-21T01:48:10;94239.06;;;10.69;100.00
3178;BME280;38141;42.666;23.344;2023-04-21T01:50:37;94247.94;;;10.73;100.00
3178;BME280;38141;42.666;23.344;2023-04-21T01:53:03;94224.41;;;10.66;100.00
3178;BME280;38141;42.666;23.344;2023-04-21T01:55:31;94176.31;;;10.22;100.00
3178;BME280;38141;42.666;23.344;2023-04-21T01:57:59;94216.38;;;10.52;100.00
3178;BME280;38141;42.666;23.344;2023-04-21T02:00:26;94173.25;;;10.17;100.00
3178;BME280;38141;42.666;23.344;2023-04-21T02:02:53;94227.53;;;10.61;100.00
3178;BME280;38141;42.666;23.344;2023-04-21T02:05:19;94231.00;;;10.62;100.00
3178;BME280;38141;42.666;23.344;2023-04-21T02:07:46;94243.63;;;10.90;100.00
3178;BME280;38141;42.666;23.344;2023-04-21T02:10:13;94177.09;;;10.27;100.00
3178;BME280;38141;42.666;23.344;2023-04-21T02:12:40;94244.47;;;10.76;100.00
3178;BME280;38141;42.666;23.344;2023-04-21T02:15:09;94237.13;;;10.69;100.00
3178;BME280;38141;42.666;23.344;2023-04-21T02:17:36;94239.41;;;10.78;100.00
3178;BME280;38141;42.666;23.344;2023-04-21T02:20:04;94177.06;;;10.30;100.00
3178;BME280;38141;42.666;23.344;2023-04-21T02:22:31;94152.38;;;10.10;100.00
3178;BME280;38141;42.666;23.344;2023-04-21T02:24:58;94179.44;;;10.17;100.00
3178;BME280;38141;42.666;23.344;2023-04-21T02:27:24;94167.84;;;10.17;100.00
3178;BME280;38141;42.666;23.344;2023-04-21T02:29:51;94224.50;;;10.49;100.00
3178;BME280;38141;42.666;23.344;2023-04-21T02:32:19;94237.22;;;10.52;100.00
3178;BME280;38141;42.666;23.344;2023-04-21T02:34:46;94214.91;;;10.30;100.00
3178;BME280;38141;42.666;23.344;2023-04-21T02:37:13;94236.13;;;10.39;100.00
3178;BME280;38141;42.666;23.344;2023-04-21T02:39:40;94226.13;;;10.21;100.00
3178;BME280;38141;42.666;23.344;2023-04-21T02:42:08;94219.56;;;10.12;100.00
3178;BME280;38141;42.666;23.344;2023-04-21T02:44:36;94236.13;;;10.35;100.00
3178;BME280;38141;42.666;23.344;2023-04-21T02:47:03;94221.06;;;10.27;100.00
3178;BME280;38141;42.666;23.344;2023-04-21T02:49:31;94236.88;;;10.39;100.00
3178;BME280;38141;42.666;23.344;2023-04-21T02:51:58;94174.47;;;9.95;100.00
3178;BME280;38141;42.666;23.344;2023-04-21T02:54:24;94241.47;;;10.49;100.00
3178;BME280;38141;42.666;23.344;2023-04-21T02:56:51;94216.78;;;10.44;100.00
3178;BME280;38141;42.666;23.344;2023-04-21T02:59:18;94244.53;;;10.62;100.00
3178;BME280;38141;42.666;23.344;2023-04-21T03:01:45;94242.22;;;10.60;100.00
3178;BME280;38141;42.666;23.344;2023-04-21T03:04:13;94224.91;;;10.44;100.00
3178;BME280;38141;42.666;23.344;2023-04-21T03:06:41;94239.09;;;10.58;100.00
3178;BME280;38141;42.666;23.344;2023-04-21T03:09:08;94200.94;;;10.46;100.00
3178;BME280;38141;42.666;23.344;2023-04-21T03:11:35;94169.72;;;10.23;100.00
3178;BME280;38141;42.666;23.344;2023-04-21T03:14:02;94159.72;;;10.20;100.00
3178;BME280;38141;42.666;23.344;2023-04-21T03:16:28;94240.22;;;10.75;100.00
3178;BME280;38141;42.666;23.344;2023-04-21T03:18:55;94240.59;;;10.74;100.00
3178;BME280;38141;42.666;23.344;2023-04-21T03:21:22;94217.84;;;10.64;100.00
3178;BME280;38141;42.666;23.344;2023-04-21T03:23:51;94240.97;;;10.79;100.00
3178;BME280;38141;42.666;23.344;2023-04-21T03:26:18;94239.44;;;10.75;100.00
3178;BME280;38141;42.666;23.344;2023-04-21T03:28:45;94237.13;;;10.73;100.00
3178;BME280;38141;42.666;23.344;2023-04-21T03:31:12;94226.28;;;10.73;100.00
3178;BME280;38141;42.666;23.344;2023-04-21T03:33:38;94177.81;;;10.34;100.00
3178;BME280;38141;42.666;23.344;2023-04-21T03:36:06;94215.91;;;10.64;100.00
3178;BME280;38141;42.666;23.344;2023-04-21T03:38:33;94250.13;;;10.99;100.00
3178;BME280;38141;42.666;23.344;2023-04-21T03:41:02;94218.88;;;10.88;100.00
3178;BME280;38141;42.666;23.344;2023-04-21T03:43:29;94252.03;;;11.06;100.00
3178;BME280;38141;42.666;23.344;2023-04-21T03:45:56;94167.34;;;10.43;100.00
3178;BME280;38141;42.666;23.344;2023-04-21T03:48:23;94241.97;;;11.06;100.00
3178;BME280;38141;42.666;23.344;2023-04-21T03:50:49;94234.66;;;11.00;99.98
3178;BME280;38141;42.666;23.344;2023-04-21T03:53:16;94250.91;;;11.03;99.91
3178;BME280;38141;42.666;23.344;2023-04-21T03:55:43;94218.41;;;11.00;99.68
3178;BME280;38141;42.666;23.344;2023-04-21T03:58:14;94277.53;;;11.12;100.00
3178;BME280;38141;42.666;23.344;2023-04-21T04:00:41;94224.78;;;10.68;100.00
3178;BME280;38141;42.666;23.344;2023-04-21T04:03:08;94225.47;;;10.83;100.00
3178;BME280;38141;42.666;23.344;2023-04-21T04:05:35;94269.72;;;11.25;100.00
3178;BME280;38141;42.666;23.344;2023-04-21T04:08:02;94270.09;;;11.23;99.07
3178;BME280;38141;42.666;23.344;2023-04-21T04:10:29;94272.06;;;11.19;99.13
3178;BME280;38141;42.666;23.344;2023-04-21T04:12:55;94258.84;;;11.28;98.44
3178;BME280;38141;42.666;23.344;2023-04-21T04:15:23;94291.53;;;11.58;96.70
3178;BME280;38141;42.666;23.344;2023-04-21T04:17:50;94279.59;;;11.52;95.45
3178;BME280;38141;42.666;23.344;2023-04-21T04:20:17;94254.88;;;11.43;95.19
3178;BME280;38141;42.666;23.344;2023-04-21T04:22:44;94293.09;;;12.08;92.03
3178;BME280;38141;42.666;23.344;2023-04-21T04:25:11;94246.41;;;11.89;90.09
3178;BME280;38141;42.666;23.344;2023-04-21T04:27:41;94302.91;;;12.35;88.88
3178;BME280;38141;42.666;23.344;2023-04-21T04:30:09;94220.44;;;11.40;90.74
3178;BME280;38141;42.666;23.344;2023-04-21T04:32:37;94294.28;;;12.07;90.32
3178;BME280;38141;42.666;23.344;2023-04-21T04:35:06;94246.03;;;11.87;89.91
3178;BME280;38141;42.666;23.344;2023-04-21T04:37:35;94218.41;;;11.55;89.88
3178;BME280;38141;42.666;23.344;2023-04-21T04:40:02;94290.78;;;12.06;89.96
3178;BME280;38141;42.666;23.344;2023-04-21T04:42:31;94252.69;;;11.79;93.05
3178;BME280;38141;42.666;23.344;2023-04-21T04:44:59;94297.59;;;12.25;99.02
3178;BME280;38141;42.666;23.344;2023-04-21T04:47:26;94318.00;;;12.40;91.55
3178;BME280;38141;42.666;23.344;2023-04-21T04:49:55;94290.66;;;12.20;88.94
3178;BME280;38141;42.666;23.344;2023-04-21T04:52:22;94309.25;;;12.59;90.90
3178;BME280;38141;42.666;23.344;2023-04-21T04:54:48;94290.88;;;12.74;86.31
3178;BME280;38141;42.666;23.344;2023-04-21T04:57:15;94285.84;;;12.38;85.67
3178;BME280;38141;42.666;23.344;2023-04-21T04:59:42;94254.59;;;12.23;87.85
3178;BME280;38141;42.666;23.344;2023-04-21T05:02:09;94314.22;;;12.64;86.47
3178;BME280;38141;42.666;23.344;2023-04-21T05:04:36;94316.63;;;12.59;86.38
3178;BME280;38141;42.666;23.344;2023-04-21T05:07:04;94313.50;;;12.60;85.75
3178;BME280;38141;42.666;23.344;2023-04-21T05:09:32;94313.31;;;12.78;84.46
3178;BME280;38141;42.666;23.344;2023-04-21T05:11:59;94321.66;;;13.28;80.14
3178;BME280;38141;42.666;23.344;2023-04-21T05:14:26;94248.88;;;13.16;76.97
3178;BME280;38141;42.666;23.344;2023-04-21T05:16:56;94254.56;;;13.25;75.64
3178;BME280;38141;42.666;23.344;2023-04-21T05:19:23;94248.50;;;13.14;76.22
3178;BME280;38141;42.666;23.344;2023-04-21T05:21:51;94318.88;;;13.58;76.88
3178;BME280;38141;42.666;23.344;2023-04-21T05:24:20;94313.66;;;13.98;74.38
3178;BME280;38141;42.666;23.344;2023-04-21T05:26:48;94286.91;;;13.93;73.12
3178;BME280;38141;42.666;23.344;2023-04-21T05:29:15;94231.16;;;13.81;72.63
3178;BME280;38141;42.666;23.344;2023-04-21T05:31:42;94317.28;;;14.38;71.05
3178;BME280;38141;42.666;23.344;2023-04-21T05:34:09;94290.56;;;13.82;72.59
3178;BME280;38141;42.666;23.344;2023-04-21T05:36:40;94318.91;;;14.32;71.69
3178;BME280;38141;42.666;23.344;2023-04-21T05:39:07;94287.38;;;14.34;70.77
3178;BME280;38141;42.666;23.344;2023-04-21T05:41:35;94325.78;;;14.83;68.62
3178;BME280;38141;42.666;23.344;2023-04-21T05:44:02;94321.47;;;15.96;63.80
3178;BME280;38141;42.666;23.344;2023-04-21T05:46:29;94290.09;;;16.50;60.10
3178;BME280;38141;42.666;23.344;2023-04-21T05:48:56;94311.66;;;16.76;59.63
3178;BME280;38141;42.666;23.344;2023-04-21T05:51:23;94297.47;;;16.81;58.72
3178;BME280;38141;42.666;23.344;2023-04-21T05:53:53;94348.72;;;18.14;55.88
3178;BME280;38141;42.666;23.344;2023-04-21T05:56:20;94340.84;;;18.16;54.14
3178;BME280;38141;42.666;23.344;2023-04-21T05:58:50;94315.47;;;18.97;52.05
3178;BME280;38141;42.666;23.344;2023-04-21T06:01:19;94319.28;;;20.45;48.16
3178;BME280;38141;42.666;23.344;2023-04-21T06:03:55;94233.25;;;20.08;47.51
3178;BME280;38141;42.666;23.344;2023-04-21T06:06:24;94301.63;;;21.46;46.04
3178;BME280;38141;42.666;23.344;2023-04-21T06:08:51;94230.28;;;21.06;44.59
3178;BME280;38141;42.666;23.344;2023-04-21T06:11:18;94264.03;;;22.75;41.84
3178;BME280;38141;42.666;23.344;2023-04-21T06:13:45;94295.53;;;23.94;40.04
3178;BME280;38141;42.666;23.344;2023-04-21T06:16:13;94301.91;;;24.65;39.34
3178;BME280;38141;42.666;23.344;2023-04-21T06:18:40;94300.81;;;24.42;38.87
3178;BME280;38141;42.666;23.344;2023-04-21T06:21:07;94301.47;;;24.72;37.99
3178;BME280;38141;42.666;23.344;2023-04-21T06:23:34;94308.50;;;25.54;37.51
3178;BME280;38141;42.666;23.344;2023-04-21T06:26:02;94269.91;;;25.76;36.99
3178;BME280;38141;42.666;23.344;2023-04-21T06:28:29;94319.78;;;24.49;38.81
3178;BME280;38141;42.666;23.344;2023-04-21T06:30:59;94300.78;;;24.57;38.73
3178;BME280;38141;42.666;23.344;2023-04-21T06:33:28;94303.38;;;24.46;38.69
3178;BME280;38141;42.666;23.344;2023-04-21T06:35:56;94287.13;;;24.33;38.41
3178;BME280;38141;42.666;23.344;2023-04-21T06:38:23;94238.91;;;22.25;41.61
3178;BME280;38141;42.666;23.344;2023-04-21T06:40:50;94250.53;;;21.96;42.19
3178;BME280;38141;42.666;23.344;2023-04-21T06:43:16;94278.03;;;22.05;42.81
3178;BME280;38141;42.666;23.344;2023-04-21T06:45:43;94256.41;;;21.80;42.23
3178;BME280;38141;42.666;23.344;2023-04-21T06:48:10;94269.75;;;21.63;42.92
3178;BME280;38141;42.666;23.344;2023-04-21T06:50:38;94280.34;;;22.54;42.41
3178;BME280;38141;42.666;23.344;2023-04-21T06:53:05;94276.44;;;22.46;42.02
3178;BME280;38141;42.666;23.344;2023-04-21T06:55:32;94272.97;;;21.62;43.63
3178;BME280;38141;42.666;23.344;2023-04-21T06:57:59;94243.16;;;22.02;42.92
3178;BME280;38141;42.666;23.344;2023-04-21T07:00:26;94270.25;;;22.28;42.11
3178;BME280;38141;42.666;23.344;2023-04-21T07:02:53;94237.91;;;21.71;43.06
3178;BME280;38141;42.666;23.344;2023-04-21T07:05:20;94285.97;;;21.61;43.73
3178;BME280;38141;42.666;23.344;2023-04-21T07:07:48;94289.81;;;22.39;42.86
3178;BME280;38141;42.666;23.344;2023-04-21T07:10:25;94303.91;;;21.90;43.67
3178;BME280;38141;42.666;23.344;2023-04-21T07:12:53;94283.78;;;21.14;44.18
3178;BME280;38141;42.666;23.344;2023-04-21T07:15:20;94237.97;;;22.90;41.24
3178;BME280;38141;42.666;23.344;2023-04-21T07:17:47;94299.78;;;22.60;41.71
3178;BME280;38141;42.666;23.344;2023-04-21T07:20:14;94298.03;;;22.72;41.73
3178;BME280;38141;42.666;23.344;2023-04-21T07:22:41;94294.13;;;23.99;40.58
3178;BME280;38141;42.666;23.344;2023-04-21T07:25:10;94286.47;;;23.35;41.28
3178;BME280;38141;42.666;23.344;2023-04-21T07:27:37;94279.97;;;24.61;39.46
3178;BME280;38141;42.666;23.344;2023-04-21T07:30:06;94260.66;;;24.12;39.89
3178;BME280;38141;42.666;23.344;2023-04-21T07:32:33;94245.00;;;23.59;40.19
3178;BME280;38141;42.666;23.344;2023-04-21T07:35:03;94264.50;;;22.64;41.43
3178;BME280;38141;42.666;23.344;2023-04-21T07:37:30;94256.56;;;20.98;44.86
3178;BME280;38141;42.666;23.344;2023-04-21T07:39:57;94265.31;;;21.66;43.31
3178;BME280;38141;42.666;23.344;2023-04-21T07:42:26;94251.34;;;21.79;42.63
3178;BME280;38141;42.666;23.344;2023-04-21T07:44:52;94227.16;;;21.83;42.80
3178;BME280;38141;42.666;23.344;2023-04-21T07:47:20;94269.03;;;21.45;43.52
3178;BME280;38141;42.666;23.344;2023-04-21T07:49:47;94309.09;;;23.10;42.36
3178;BME280;38141;42.666;23.344;2023-04-21T07:52:14;94224.66;;;21.61;43.50
3178;BME280;38141;42.666;23.344;2023-04-21T07:54:41;94221.72;;;21.64;43.17
3178;BME280;38141;42.666;23.344;2023-04-21T07:57:08;94281.88;;;21.90;43.54
3178;BME280;38141;42.666;23.344;2023-04-21T07:59:37;94258.44;;;21.61;43.03
3178;BME280;38141;42.666;23.344;2023-04-21T08:02:04;94223.88;;;20.73;44.28
3178;BME280;38141;42.666;23.344;2023-04-21T08:04:31;94317.03;;;22.46;43.00
3178;BME280;38141;42.666;23.344;2023-04-21T08:10:09;94285.47;;;22.47;41.51
3178;BME280;38141;42.666;23.344;2023-04-21T08:12:36;94265.59;;;23.05;40.78
3178;BME280;38141;42.666;23.344;2023-04-21T08:15:06;94240.13;;;23.83;38.87
3178;BME280;38141;42.666;23.344;2023-04-21T08:17:33;94210.03;;;21.79;41.89
3178;BME280;38141;42.666;23.344;2023-04-21T08:20:00;94265.25;;;21.84;42.88
3178;BME280;38141;42.666;23.344;2023-04-21T08:22:29;94210.50;;;22.34;41.46
3178;BME280;38141;42.666;23.344;2023-04-21T08:25:02;94274.06;;;23.01;41.71
3178;BME280;38141;42.666;23.344;2023-04-21T08:30:48;94282.06;;;25.53;37.18
3178;BME280;38141;42.666;23.344;2023-04-21T08:36:37;94259.97;;;23.53;39.23
3178;BME280;38141;42.666;23.344;2023-04-21T08:39:05;94263.84;;;22.78;41.07
3178;BME280;38141;42.666;23.344;2023-04-21T08:41:32;94279.78;;;22.98;40.99
3178;BME280;38141;42.666;23.344;2023-04-21T08:44:10;94255.16;;;22.47;41.72
3178;BME280;38141;42.666;23.344;2023-04-21T08:46:39;94211.06;;;23.73;39.45
3178;BME280;38141;42.666;23.344;2023-04-21T08:49:08;94207.63;;;25.40;37.06
3178;BME280;38141;42.666;23.344;2023-04-21T08:51:42;94208.13;;;25.13;36.79
3178;BME280;38141;42.666;23.344;2023-04-21T08:54:09;94271.03;;;27.17;34.93
3178;BME280;38141;42.666;23.344;2023-04-21T08:59:57;94275.06;;;26.20;35.38
3178;BME280;38141;42.666;23.344;2023-04-21T09:02:26;94270.94;;;26.89;34.49
3178;BME280;38141;42.666;23.344;2023-04-21T09:08:14;94262.84;;;31.10;29.55
3178;BME280;38141;42.666;23.344;2023-04-21T09:10:42;94263.34;;;30.35;29.83
3178;BME280;38141;42.666;23.344;2023-04-21T09:13:09;94252.97;;;27.50;33.28
3178;BME280;38141;42.666;23.344;2023-04-21T09:15:39;94253.47;;;29.23;31.12
3178;BME280;38141;42.666;23.344;2023-04-21T09:18:12;94255.72;;;30.36;30.44
3178;BME280;38141;42.666;23.344;2023-04-21T09:21:05;94244.50;;;31.14;29.04
3178;BME280;38141;42.666;23.344;2023-04-21T09:23:38;94239.56;;;30.53;28.87
3178;BME280;38141;42.666;23.344;2023-04-21T09:26:06;94222.47;;;28.85;30.45
3178;BME280;38141;42.666;23.344;2023-04-21T09:28:34;94115.81;;;25.90;33.80
3178;BME280;38141;42.666;23.344;2023-04-21T09:31:11;94239.31;;;24.88;35.35
3178;BME280;38141;42.666;23.344;2023-04-21T09:33:44;94149.97;;;25.70;33.84
3178;BME280;38141;42.666;23.344;2023-04-21T09:36:17;94226.09;;;28.75;30.48
3178;BME280;38141;42.666;23.344;2023-04-21T09:38:48;94192.75;;;29.04;30.09
3178;BME280;38141;42.666;23.344;2023-04-21T09:41:16;94204.19;;;28.10;30.50
3178;BME280;38141;42.666;23.344;2023-04-21T09:43:43;94204.31;;;25.93;33.12
3178;BME280;38141;42.666;23.344;2023-04-21T09:46:11;94232.34;;;26.38;33.06
3178;BME280;38141;42.666;23.344;2023-04-21T09:48:39;94167.78;;;26.48;32.69
3178;BME280;38141;42.666;23.344;2023-04-21T09:51:11;94188.28;;;25.46;33.87
3178;BME280;38141;42.666;23.344;2023-04-21T09:56:59;94151.56;;;24.27;35.14
3178;BME280;38141;42.666;23.344;2023-04-21T09:59:29;94206.63;;;24.31;36.18
3178;BME280;38141;42.666;23.344;2023-04-21T10:01:58;94137.72;;;22.93;37.58
3178;BME280;38141;42.666;23.344;2023-04-21T10:04:27;94239.41;;;22.62;39.07
3178;BME280;38141;42.666;23.344;2023-04-21T10:07:00;94129.06;;;23.15;37.33
3178;BME280;38141;42.666;23.344;2023-04-21T10:09:32;94167.19;;;22.34;38.26
3178;BME280;38141;42.666;23.344;2023-04-21T10:12:01;94162.44;;;21.78;39.30
3178;BME280;38141;42.666;23.344;2023-04-21T10:14:29;94091.69;;;21.93;38.54
3178;BME280;38141;42.666;23.344;2023-04-21T10:17:04;94188.53;;;21.92;39.42
3178;BME280;38141;42.666;23.344;2023-04-21T10:19:31;94191.03;;;21.57;40.62
3178;BME280;38141;42.666;23.344;2023-04-21T10:22:05;94203.28;;;22.12;40.38
3178;BME280;38141;42.666;23.344;2023-04-21T10:24:36;94144.25;;;21.48;41.02
3178;BME280;38141;42.666;23.344;2023-04-21T10:27:03;94184.28;;;21.16;42.71
3178;BME280;38141;42.666;23.344;2023-04-21T10:29:32;94214.59;;;21.40;42.70
3178;BME280;38141;42.666;23.344;2023-04-21T10:31:59;94199.81;;;21.28;43.55
3178;BME280;38141;42.666;23.344;2023-04-21T10:34:33;94200.50;;;21.56;43.81
3178;BME280;38141;42.666;23.344;2023-04-21T10:37:20;94166.13;;;20.73;44.05
3178;BME280;38141;42.666;23.344;2023-04-21T10:39:56;94210.09;;;20.91;43.43
3178;BME280;38141;42.666;23.344;2023-04-21T10:42:25;94145.53;;;20.50;44.05
3178;BME280;38141;42.666;23.344;2023-04-21T10:44:59;94194.47;;;21.34;43.45
3178;BME280;38141;42.666;23.344;2023-04-21T10:47:34;94160.94;;;22.63;41.66
3178;BME280;38141;42.666;23.344;2023-04-21T10:50:13;94177.75;;;22.74;40.23
3178;BME280;38141;42.666;23.344;2023-04-21T10:52:49;94209.97;;;22.44;41.16
3178;BME280;38141;42.666;23.344;2023-04-21T10:55:17;94176.44;;;21.65;41.61
3178;BME280;38141;42.666;23.344;2023-04-21T10:57:45;94192.56;;;21.82;41.48
3178;BME280;38141;42.666;23.344;2023-04-21T11:00:16;94188.28;;;20.88;41.86
3178;BME280;38141;42.666;23.344;2023-04-21T11:02:54;94214.09;;;20.54;42.79
3178;BME280;38141;42.666;23.344;2023-04-21T11:05:30;94202.47;;;20.31;43.32
3178;BME280;38141;42.666;23.344;2023-04-21T11:08:09;94192.09;;;20.63;42.40
3178;BME280;38141;42.666;23.344;2023-04-21T11:10:57;94194.81;;;20.90;42.44
3178;BME280;38141;42.666;23.344;2023-04-21T11:13:25;94169.97;;;20.75;42.04
3178;BME280;38141;42.666;23.344;2023-04-21T11:16:01;94138.91;;;20.93;42.39
3178;BME280;38141;42.666;23.344;2023-04-21T11:18:33;94094.50;;;20.67;42.67
3178;BME280;38141;42.666;23.344;2023-04-21T11:21:09;94160.34;;;20.80;42.77
3178;BME280;38141;42.666;23.344;2023-04-21T11:23:40;94172.53;;;20.88;42.89
3178;BME280;38141;42.666;23.344;2023-04-21T11:26:07;94165.31;;;21.00;42.64
3178;BME280;38141;42.666;23.344;2023-04-21T11:28:34;94144.28;;;20.88;42.89
3178;BME280;38141;42.666;23.344;2023-04-21T11:31:01;94192.22;;;20.96;43.55
3178;BME280;38141;42.666;23.344;2023-04-21T11:33:29;94193.44;;;21.04;43.25
3178;BME280;38141;42.666;23.344;2023-04-21T11:35:56;94197.66;;;21.74;42.23
3178;BME280;38141;42.666;23.344;2023-04-21T11:38:24;94186.16;;;22.32;41.60
3178;BME280;38141;42.666;23.344;2023-04-21T11:40:54;94171.34;;;21.40;42.18
3178;BME280;38141;42.666;23.344;2023-04-21T11:43:21;94099.16;;;20.94;42.96
3178;BME280;38141;42.666;23.344;2023-04-21T11:45:48;94138.34;;;21.64;42.87
3178;BME280;38141;42.666;23.344;2023-04-21T11:48:17;94114.09;;;20.51;44.74
3178;BME280;38141;42.666;23.344;2023-04-21T11:50:49;94177.88;;;20.92;45.15
3178;BME280;38141;42.666;23.344;2023-04-21T11:53:16;94184.56;;;21.18;44.52
3178;BME280;38141;42.666;23.344;2023-04-21T11:55:43;94178.75;;;21.25;44.27
3178;BME280;38141;42.666;23.344;2023-04-21T11:58:12;94134.50;;;20.86;44.27
3178;BME280;38141;42.666;23.344;2023-04-21T12:00:43;94137.00;;;21.26;43.60
3178;BME280;38141;42.666;23.344;2023-04-21T12:03:11;94052.16;;;20.32;42.95
3178;BME280;38141;42.666;23.344;2023-04-21T12:05:38;94120.06;;;20.40;42.48
3178;BME280;38141;42.666;23.344;2023-04-21T12:08:05;94185.03;;;21.07;41.14
3178;BME280;38141;42.666;23.344;2023-04-21T12:10:43;94184.56;;;21.00;40.58
3178;BME280;38141;42.666;23.344;2023-04-21T12:13:11;94193.31;;;20.89;40.90
3178;BME280;38141;42.666;23.344;2023-04-21T12:15:38;94183.97;;;20.96;41.00
3178;BME280;38141;42.666;23.344;2023-04-21T12:18:11;94168.63;;;20.62;41.84
3178;BME280;38141;42.666;23.344;2023-04-21T12:20:49;94204.00;;;20.87;41.65
3178;BME280;38141;42.666;23.344;2023-04-21T12:23:17;94204.75;;;20.97;41.57
3178;BME280;38141;42.666;23.344;2023-04-21T12:25:44;94171.94;;;20.93;41.79
3178;BME280;38141;42.666;23.344;2023-04-21T12:28:14;94184.13;;;20.92;42.17
3178;BME280;38141;42.666;23.344;2023-04-21T12:30:42;94109.59;;;20.81;41.71
3178;BME280;38141;42.666;23.344;2023-04-21T12:33:10;94183.03;;;20.99;42.22
3178;BME280;38141;42.666;23.344;2023-04-21T12:35:37;94196.56;;;21.48;42.09
3178;BME280;38141;42.666;23.344;2023-04-21T12:38:04;94149.53;;;21.27;41.87
3178;BME280;38141;42.666;23.344;2023-04-21T12:40:31;94194.75;;;21.36;41.90
3178;BME280;38141;42.666;23.344;2023-04-21T12:42:59;94174.19;;;21.13;42.24
3178;BME280;38141;42.666;23.344;2023-04-21T12:45:27;94151.13;;;20.92;41.18
3178;BME280;38141;42.666;23.344;2023-04-21T12:47:56;94156.09;;;20.52;42.11
3178;BME280;38141;42.666;23.344;2023-04-21T12:50:23;94142.75;;;20.77;41.86
3178;BME280;38141;42.666;23.344;2023-04-21T12:52:49;94162.09;;;21.10;40.80
3178;BME280;38141;42.666;23.344;2023-04-21T12:55:19;94145.44;;;21.05;40.95
3178;BME280;38141;42.666;23.344;2023-04-21T12:57:46;94193.28;;;21.58;40.39
3178;BME280;38141;42.666;23.344;2023-04-21T13:00:14;94138.13;;;21.02;41.40
3178;BME280;38141;42.666;23.344;2023-04-21T13:02:42;94112.63;;;21.01;41.72
3178;BME280;38141;42.666;23.344;2023-04-21T13:05:09;94110.19;;;21.36;40.83
3178;BME280;38141;42.666;23.344;2023-04-21T13:07:37;94186.72;;;21.56;40.31
3178;BME280;38141;42.666;23.344;2023-04-21T13:10:08;94152.34;;;20.91;40.67
3178;BME280;38141;42.666;23.344;2023-04-21T13:12:35;94188.09;;;20.91;41.40
3178;BME280;38141;42.666;23.344;2023-04-21T13:15:02;94173.44;;;20.03;42.91
3178;BME280;38141;42.666;23.344;2023-04-21T13:17:30;94187.66;;;20.11;42.51
3178;BME280;38141;42.666;23.344;2023-04-21T13:19:58;94113.63;;;19.40;42.68
3178;BME280;38141;42.666;23.344;2023-04-21T13:22:25;94124.72;;;19.76;41.84
3178;BME280;38141;42.666;23.344;2023-04-21T13:24:52;94194.63;;;19.84;42.03